sensor_id;sensor_type;location;lat;lon;timestamp;pressure;altitude;pressure_sealevel;temperature;humidity
59391;BME280;53405;57.012;40.984;2024-03-06T00:01:22;101236.09;;;-7.86;62.38
59391;BME280;53405;57.012;40.984;2024-03-06T00:03:50;101242.94;;;-7.88;61.95
59391;BME280;53405;57.012;40.984;2024-03-06T00:06:17;101244.81;;;-7.98;61.10
59391;BME280;53405;57.012;40.984;2024-03-06T00:08:45;101238.88;;;-7.99;61.53
59391;BME280;53405;57.012;40.984;2024-03-06T00:11:13;101244.81;;;-7.98;62.51
59391;BME280;53405;57.012;40.984;2024-03-06T00:13:41;101247.41;;;-8.00;62.17
59391;BME280;53405;57.012;40.984;2024-03-06T00:16:09;101251.72;;;-8.02;62.80
59391;BME280;53405;57.012;40.984;2024-03-06T00:18:37;101241.59;;;-8.08;62.22
59391;BME280;53405;57.012;40.984;2024-03-06T00:21:04;101198.63;;;-8.36;61.95
59391;BME280;53405;57.012;40.984;2024-03-06T00:23:32;101245.09;;;-8.13;62.47
59391;BME280;53405;57.012;40.984;2024-03-06T00:25:59;101249.41;;;-8.15;61.32
59391;BME280;53405;57.012;40.984;2024-03-06T00:28:27;101250.28;;;-8.17;62.22
59391;BME280;53405;57.012;40.984;2024-03-06T00:30:56;101247.66;;;-8.13;62.27
59391;BME280;53405;57.012;40.984;2024-03-06T00:33:23;101250.34;;;-8.20;62.11
59391;BME280;53405;57.012;40.984;2024-03-06T00:35:51;101249.63;;;-8.28;61.81
59391;BME280;53405;57.012;40.984;2024-03-06T00:38:19;101257.19;;;-8.22;62.23
59391;BME280;53405;57.012;40.984;2024-03-06T00:40:46;101245.25;;;-8.21;62.22
59391;BME280;53405;57.012;40.984;2024-03-06T00:43:14;101256.31;;;-8.21;61.93
59391;BME280;53405;57.012;40.984;2024-03-06T00:45:41;101251.19;;;-8.19;61.78
59391;BME280;53405;57.012;40.984;2024-03-06T00:48:09;101253.75;;;-8.19;61.84
59391;BME280;53405;57.012;40.984;2024-03-06T00:50:37;101255.53;;;-8.24;62.17
59391;BME280;53405;57.012;40.984;2024-03-06T00:53:06;101253.91;;;-8.28;62.09
59391;BME280;53405;57.012;40.984;2024-03-06T00:55:33;101246.31;;;-8.33;62.72
59391;BME280;53405;57.012;40.984;2024-03-06T00:58:01;101258.25;;;-8.33;62.73
59391;BME280;53405;57.012;40.984;2024-03-06T01:00:29;101261.66;;;-8.35;62.42
59391;BME280;53405;57.012;40.984;2024-03-06T01:02:57;101265.19;;;-8.40;62.48
59391;BME280;53405;57.012;40.984;2024-03-06T01:05:24;101212.06;;;-8.71;62.60
59391;BME280;53405;57.012;40.984;2024-03-06T01:07:52;101255.09;;;-8.46;63.02
59391;BME280;53405;57.012;40.984;2024-03-06T01:10:22;101223.00;;;-8.63;63.43
59391;BME280;53405;57.012;40.984;2024-03-06T01:12:51;101260.25;;;-8.49;62.30
59391;BME280;53405;57.012;40.984;2024-03-06T01:15:19;101259.41;;;-8.51;62.40
59391;BME280;53405;57.012;40.984;2024-03-06T01:17:46;101259.38;;;-8.48;62.50
59391;BME280;53405;57.012;40.984;2024-03-06T01:20:14;101249.16;;;-8.48;63.02
59391;BME280;53405;57.012;40.984;2024-03-06T01:22:42;101235.69;;;-8.58;62.23
59391;BME280;53405;57.012;40.984;2024-03-06T01:25:10;101244.19;;;-8.58;62.27
59391;BME280;53405;57.012;40.984;2024-03-06T01:27:38;101250.13;;;-8.56;62.93
59391;BME280;53405;57.012;40.984;2024-03-06T01:30:06;101236.56;;;-8.61;62.21
59391;BME280;53405;57.012;40.984;2024-03-06T01:32:34;101240.06;;;-8.65;61.99
59391;BME280;53405;57.012;40.984;2024-03-06T01:35:02;101250.19;;;-8.59;62.07
59391;BME280;53405;57.012;40.984;2024-03-06T01:37:30;101248.41;;;-8.55;62.08
59391;BME280;53405;57.012;40.984;2024-03-06T01:39:58;101250.13;;;-8.54;62.92
59391;BME280;53405;57.012;40.984;2024-03-06T01:42:26;101236.53;;;-8.59;62.57
59391;BME280;53405;57.012;40.984;2024-03-06T01:44:53;101251.81;;;-8.55;62.09
59391;BME280;53405;57.012;40.984;2024-03-06T01:47:21;101253.53;;;-8.57;61.97
59391;BME280;53405;57.012;40.984;2024-03-06T01:49:49;101250.25;;;-8.63;61.98
59391;BME280;53405;57.012;40.984;2024-03-06T01:52:17;101203.06;;;-8.92;62.74
59391;BME280;53405;57.012;40.984;2024-03-06T01:54:47;101254.47;;;-8.61;62.51
59391;BME280;53405;57.012;40.984;2024-03-06T01:57:17;101256.19;;;-8.61;61.91
59391;BME280;53405;57.012;40.984;2024-03-06T01:59:44;101264.75;;;-8.64;62.59
59391;BME280;53405;57.012;40.984;2024-03-06T02:02:13;101254.53;;;-8.64;62.35
59391;BME280;53405;57.012;40.984;2024-03-06T02:04:41;101254.63;;;-8.70;62.08
59391;BME280;53405;57.012;40.984;2024-03-06T02:07:10;101258.84;;;-8.69;62.89
59391;BME280;53405;57.012;40.984;2024-03-06T02:09:40;101263.06;;;-8.66;62.86
59391;BME280;53405;57.012;40.984;2024-03-06T02:12:08;101282.66;;;-8.65;62.79
59391;BME280;53405;57.012;40.984;2024-03-06T02:14:37;101285.28;;;-8.70;62.56
59391;BME280;53405;57.012;40.984;2024-03-06T02:17:06;101283.59;;;-8.73;62.63
59391;BME280;53405;57.012;40.984;2024-03-06T02:19:41;101293.88;;;-8.77;63.25
59391;BME280;53405;57.012;40.984;2024-03-06T02:22:11;101287.94;;;-8.78;62.07
59391;BME280;53405;57.012;40.984;2024-03-06T02:24:48;101255.19;;;-9.09;62.37
59391;BME280;53405;57.012;40.984;2024-03-06T02:27:18;101283.03;;;-8.92;61.84
59391;BME280;53405;57.012;40.984;2024-03-06T02:29:45;101245.09;;;-9.16;61.65
59391;BME280;53405;57.012;40.984;2024-03-06T02:32:13;101269.47;;;-8.95;63.03
59391;BME280;53405;57.012;40.984;2024-03-06T02:34:42;101249.25;;;-9.09;63.15
59391;BME280;53405;57.012;40.984;2024-03-06T02:37:09;101274.47;;;-8.86;63.51
59391;BME280;53405;57.012;40.984;2024-03-06T02:39:37;101278.63;;;-8.82;62.52
59391;BME280;53405;57.012;40.984;2024-03-06T02:42:04;101277.78;;;-8.81;62.17
59391;BME280;53405;57.012;40.984;2024-03-06T02:44:32;101273.63;;;-8.88;62.06
59391;BME280;53405;57.012;40.984;2024-03-06T02:47:00;101254.34;;;-9.09;62.27
59391;BME280;53405;57.012;40.984;2024-03-06T02:49:29;101277.91;;;-8.90;62.93
59391;BME280;53405;57.012;40.984;2024-03-06T02:51:57;101283.03;;;-8.92;63.29
59391;BME280;53405;57.012;40.984;2024-03-06T02:54:25;101285.63;;;-8.95;62.98
59391;BME280;53405;57.012;40.984;2024-03-06T02:56:53;101289.88;;;-8.94;63.02
59391;BME280;53405;57.012;40.984;2024-03-06T02:59:20;101288.25;;;-8.99;62.93
59391;BME280;53405;57.012;40.984;2024-03-06T03:01:48;101294.19;;;-8.99;63.17
59391;BME280;53405;57.012;40.984;2024-03-06T03:04:16;101303.59;;;-9.02;64.14
59391;BME280;53405;57.012;40.984;2024-03-06T03:06:44;101284.06;;;-9.06;64.34
59391;BME280;53405;57.012;40.984;2024-03-06T03:09:11;101306.16;;;-9.02;64.48
59391;BME280;53405;57.012;40.984;2024-03-06T03:11:39;101302.81;;;-9.06;64.73
59391;BME280;53405;57.012;40.984;2024-03-06T03:14:06;101307.13;;;-9.10;64.31
59391;BME280;53405;57.012;40.984;2024-03-06T03:16:34;101289.38;;;-9.19;64.29
59391;BME280;53405;57.012;40.984;2024-03-06T03:19:03;101318.16;;;-9.09;64.21
59391;BME280;53405;57.012;40.984;2024-03-06T03:21:31;101305.44;;;-9.11;64.74
59391;BME280;53405;57.012;40.984;2024-03-06T03:23:59;101306.19;;;-9.04;64.28
59391;BME280;53405;57.012;40.984;2024-03-06T03:26:27;101292.59;;;-9.06;64.79
59391;BME280;53405;57.012;40.984;2024-03-06T03:28:54;101272.97;;;-9.02;63.68
59391;BME280;53405;57.012;40.984;2024-03-06T03:31:23;101279.75;;;-9.00;63.51
59391;BME280;53405;57.012;40.984;2024-03-06T03:33:50;101290.94;;;-9.10;63.61
59391;BME280;53405;57.012;40.984;2024-03-06T03:36:18;101266.16;;;-9.03;64.31
59391;BME280;53405;57.012;40.984;2024-03-06T03:38:45;101281.25;;;-8.86;63.01
59391;BME280;53405;57.012;40.984;2024-03-06T03:41:13;101280.13;;;-9.28;64.45
59391;BME280;53405;57.012;40.984;2024-03-06T03:43:42;101288.38;;;-9.09;64.64
59391;BME280;53405;57.012;40.984;2024-03-06T03:46:09;101288.19;;;-8.95;64.31
59391;BME280;53405;57.012;40.984;2024-03-06T03:48:37;101253.72;;;-9.25;64.59
59391;BME280;53405;57.012;40.984;2024-03-06T03:51:06;101281.41;;;-8.97;63.63
59391;BME280;53405;57.012;40.984;2024-03-06T03:53:35;101274.59;;;-8.95;63.30
59391;BME280;53405;57.012;40.984;2024-03-06T03:56:03;101255.88;;;-8.99;63.31
59391;BME280;53405;57.012;40.984;2024-03-06T03:58:32;101273.59;;;-8.86;64.73
59391;BME280;53405;57.012;40.984;2024-03-06T04:01:01;101291.19;;;-8.68;62.90
59391;BME280;53405;57.012;40.984;2024-03-06T04:03:28;101288.66;;;-8.68;63.39
59391;BME280;53405;57.012;40.984;2024-03-06T04:05:56;101302.28;;;-8.70;64.23
59391;BME280;53405;57.012;40.984;2024-03-06T04:08:24;101300.44;;;-8.61;65.08
59391;BME280;53405;57.012;40.984;2024-03-06T04:10:51;101302.19;;;-8.64;63.50
59391;BME280;53405;57.012;40.984;2024-03-06T04:13:20;101295.44;;;-8.65;63.40
59391;BME280;53405;57.012;40.984;2024-03-06T04:15:48;101271.69;;;-8.74;64.33
59391;BME280;53405;57.012;40.984;2024-03-06T04:18:16;101286.13;;;-8.69;63.51
59391;BME280;53405;57.012;40.984;2024-03-06T04:20:44;101245.81;;;-9.08;63.73
59391;BME280;53405;57.012;40.984;2024-03-06T04:23:12;101285.16;;;-8.62;63.69
59391;BME280;53405;57.012;40.984;2024-03-06T04:25:40;101289.41;;;-8.63;63.25
59391;BME280;53405;57.012;40.984;2024-03-06T04:28:08;101287.53;;;-8.51;61.91
59391;BME280;53405;57.012;40.984;2024-03-06T04:30:36;101279.94;;;-8.58;61.92
59391;BME280;53405;57.012;40.984;2024-03-06T04:33:03;101310.56;;;-8.55;63.26
59391;BME280;53405;57.012;40.984;2024-03-06T04:35:32;101314.81;;;-8.54;64.32
59391;BME280;53405;57.012;40.984;2024-03-06T04:38:01;101289.28;;;-8.55;63.49
59391;BME280;53405;57.012;40.984;2024-03-06T04:40:31;101305.13;;;-8.35;64.14
59391;BME280;53405;57.012;40.984;2024-03-06T04:42:59;101299.28;;;-8.43;65.21
59391;BME280;53405;57.012;40.984;2024-03-06T04:45:27;101255.28;;;-8.59;65.13
59391;BME280;53405;57.012;40.984;2024-03-06T04:47:56;101257.91;;;-8.62;64.88
59391;BME280;53405;57.012;40.984;2024-03-06T04:50:24;101290.56;;;-8.31;64.04
59391;BME280;53405;57.012;40.984;2024-03-06T04:52:52;101283.88;;;-8.38;63.69
59391;BME280;53405;57.012;40.984;2024-03-06T04:55:20;101319.41;;;-8.21;63.27
59391;BME280;53405;57.012;40.984;2024-03-06T04:57:51;101302.59;;;-8.36;63.40
59391;BME280;53405;57.012;40.984;2024-03-06T05:00:20;101320.22;;;-8.19;62.77
59391;BME280;53405;57.012;40.984;2024-03-06T05:02:48;101310.16;;;-8.30;63.43
59391;BME280;53405;57.012;40.984;2024-03-06T05:05:36;101327.81;;;-8.16;63.19
59391;BME280;53405;57.012;40.984;2024-03-06T05:08:21;101312.44;;;-8.13;62.95
59391;BME280;53405;57.012;40.984;2024-03-06T05:11:06;101291.31;;;-8.23;62.87
59391;BME280;53405;57.012;40.984;2024-03-06T05:13:52;101275.19;;;-8.28;63.52
59391;BME280;53405;57.012;40.984;2024-03-06T05:16:37;101325.09;;;-8.05;62.53
59391;BME280;53405;57.012;40.984;2024-03-06T05:19:22;101313.09;;;-8.03;62.00
59391;BME280;53405;57.012;40.984;2024-03-06T05:22:07;101312.28;;;-8.04;62.26
59391;BME280;53405;57.012;40.984;2024-03-06T05:24:52;101309.56;;;-7.94;61.55
59391;BME280;53405;57.012;40.984;2024-03-06T05:27:40;101303.41;;;-7.84;61.82
59391;BME280;53405;57.012;40.984;2024-03-06T05:30:25;101229.91;;;-8.20;61.47
59391;BME280;53405;57.012;40.984;2024-03-06T05:33:10;101298.88;;;-7.71;60.92
59391;BME280;53405;57.012;40.984;2024-03-06T05:35:55;101297.91;;;-7.64;60.85
59391;BME280;53405;57.012;40.984;2024-03-06T05:38:41;101291.09;;;-7.65;60.88
59391;BME280;53405;57.012;40.984;2024-03-06T05:41:26;101303.69;;;-7.54;60.95
59391;BME280;53405;57.012;40.984;2024-03-06T05:44:11;101305.06;;;-7.39;60.89
59391;BME280;53405;57.012;40.984;2024-03-06T05:47:00;101306.28;;;-7.56;60.23
59391;BME280;53405;57.012;40.984;2024-03-06T05:49:48;101302.78;;;-7.52;61.22
59391;BME280;53405;57.012;40.984;2024-03-06T05:52:33;101300.84;;;-7.40;60.86
59391;BME280;53405;57.012;40.984;2024-03-06T05:55:21;101302.56;;;-7.41;60.27
59391;BME280;53405;57.012;40.984;2024-03-06T05:58:06;101305.09;;;-7.41;60.11
59391;BME280;53405;57.012;40.984;2024-03-06T06:00:41;101299.78;;;-7.30;59.54
59391;BME280;53405;57.012;40.984;2024-03-06T06:03:09;101310.81;;;-7.27;59.81
59391;BME280;53405;57.012;40.984;2024-03-06T06:05:39;101292.19;;;-7.35;59.85
59391;BME280;53405;57.012;40.984;2024-03-06T06:08:08;101293.03;;;-7.33;59.58
59391;BME280;53405;57.012;40.984;2024-03-06T06:10:36;101296.19;;;-7.21;58.95
59391;BME280;53405;57.012;40.984;2024-03-06T06:13:03;101300.16;;;-7.08;58.79
59391;BME280;53405;57.012;40.984;2024-03-06T06:15:32;101300.97;;;-7.04;57.86
59391;BME280;53405;57.012;40.984;2024-03-06T06:18:00;101284.56;;;-6.97;58.83
59391;BME280;53405;57.012;40.984;2024-03-06T06:20:28;101296.13;;;-6.79;57.49
59391;BME280;53405;57.012;40.984;2024-03-06T06:22:56;101291.88;;;-6.80;58.48
59391;BME280;53405;57.012;40.984;2024-03-06T06:25:24;101294.03;;;-6.62;58.52
59391;BME280;53405;57.012;40.984;2024-03-06T06:27:52;101298.03;;;-6.51;58.06
59391;BME280;53405;57.012;40.984;2024-03-06T06:30:19;101302.53;;;-6.61;57.56
59391;BME280;53405;57.012;40.984;2024-03-06T06:32:47;101237.16;;;-6.78;57.15
59391;BME280;53405;57.012;40.984;2024-03-06T06:35:14;101296.75;;;-6.33;57.63
59391;BME280;53405;57.012;40.984;2024-03-06T06:37:42;101260.38;;;-6.48;57.06
59391;BME280;53405;57.012;40.984;2024-03-06T06:40:10;101293.13;;;-6.25;56.57
59391;BME280;53405;57.012;40.984;2024-03-06T06:42:44;101297.88;;;-6.09;56.20
59391;BME280;53405;57.012;40.984;2024-03-06T06:45:18;101300.31;;;-6.05;56.88
59391;BME280;53405;57.012;40.984;2024-03-06T06:47:47;101297.03;;;-6.10;54.71
59391;BME280;53405;57.012;40.984;2024-03-06T06:50:16;101273.72;;;-6.01;54.87
59391;BME280;53405;57.012;40.984;2024-03-06T06:52:44;101294.44;;;-5.77;55.89
59391;BME280;53405;57.012;40.984;2024-03-06T06:55:12;101287.97;;;-5.92;56.30
59391;BME280;53405;57.012;40.984;2024-03-06T06:57:39;101287.56;;;-6.08;56.08
59391;BME280;53405;57.012;40.984;2024-03-06T07:00:08;101290.28;;;-5.83;54.88
59391;BME280;53405;57.012;40.984;2024-03-06T07:02:41;101283.31;;;-5.77;54.20
59391;BME280;53405;57.012;40.984;2024-03-06T07:05:09;101267.91;;;-5.77;55.45
59391;BME280;53405;57.012;40.984;2024-03-06T07:07:56;101279.78;;;-5.73;55.35
59391;BME280;53405;57.012;40.984;2024-03-06T07:10:24;101293.16;;;-5.62;56.25
59391;BME280;53405;57.012;40.984;2024-03-06T07:12:52;101261.81;;;-5.73;51.92
59391;BME280;53405;57.012;40.984;2024-03-06T07:15:19;101250.75;;;-5.75;52.02
59391;BME280;53405;57.012;40.984;2024-03-06T07:17:47;101300.84;;;-5.31;54.84
59391;BME280;53405;57.012;40.984;2024-03-06T07:20:16;101302.06;;;-5.14;53.91
59391;BME280;53405;57.012;40.984;2024-03-06T07:22:44;101295.47;;;-4.93;54.39
59391;BME280;53405;57.012;40.984;2024-03-06T07:25:30;101298.50;;;-4.80;52.17
59391;BME280;53405;57.012;40.984;2024-03-06T07:27:58;101306.44;;;-4.88;50.45
59391;BME280;53405;57.012;40.984;2024-03-06T07:30:26;101301.38;;;-4.91;51.48
59391;BME280;53405;57.012;40.984;2024-03-06T07:32:54;101307.53;;;-4.97;53.01
59391;BME280;53405;57.012;40.984;2024-03-06T07:35:22;101295.72;;;-5.31;55.57
59391;BME280;53405;57.012;40.984;2024-03-06T07:40:37;101301.56;;;-4.97;51.85
59391;BME280;53405;57.012;40.984;2024-03-06T07:43:05;101292.03;;;-4.94;52.12
59391;BME280;53405;57.012;40.984;2024-03-06T07:45:33;101232.88;;;-5.49;54.38
59391;BME280;53405;57.012;40.984;2024-03-06T07:48:01;101295.38;;;-4.90;52.69
59391;BME280;53405;57.012;40.984;2024-03-06T07:50:29;101298.06;;;-4.66;53.30
59391;BME280;53405;57.012;40.984;2024-03-06T07:52:57;101292.00;;;-4.65;51.93
59391;BME280;53405;57.012;40.984;2024-03-06T07:55:25;101287.38;;;-4.54;53.62
59391;BME280;53405;57.012;40.984;2024-03-06T07:57:53;101232.34;;;-5.02;53.89
59391;BME280;53405;57.012;40.984;2024-03-06T08:00:21;101289.69;;;-4.73;52.73
59391;BME280;53405;57.012;40.984;2024-03-06T08:02:49;101287.84;;;-4.68;53.54
59391;BME280;53405;57.012;40.984;2024-03-06T08:05:38;101248.97;;;-4.85;51.80
59391;BME280;53405;57.012;40.984;2024-03-06T08:08:06;101274.03;;;-4.65;52.48
59391;BME280;53405;57.012;40.984;2024-03-06T08:10:34;101296.72;;;-4.51;53.32
59391;BME280;53405;57.012;40.984;2024-03-06T08:13:01;101257.91;;;-4.70;51.72
59391;BME280;53405;57.012;40.984;2024-03-06T08:15:30;101290.75;;;-4.25;51.32
59391;BME280;53405;57.012;40.984;2024-03-06T08:17:58;101290.84;;;-4.03;51.41
59391;BME280;53405;57.012;40.984;2024-03-06T08:20:26;101297.31;;;-3.91;49.96
59391;BME280;53405;57.012;40.984;2024-03-06T08:22:56;101296.41;;;-3.90;51.08
59391;BME280;53405;57.012;40.984;2024-03-06T08:25:23;101296.84;;;-3.77;50.49
59391;BME280;53405;57.012;40.984;2024-03-06T08:28:10;101287.31;;;-4.01;50.96
59391;BME280;53405;57.012;40.984;2024-03-06T08:30:37;101281.19;;;-3.96;50.73
59391;BME280;53405;57.012;40.984;2024-03-06T08:33:05;101242.94;;;-4.07;51.92
59391;BME280;53405;57.012;40.984;2024-03-06T08:35:33;101290.91;;;-3.79;50.81
59391;BME280;53405;57.012;40.984;2024-03-06T08:38:01;101250.25;;;-3.95;50.69
59391;BME280;53405;57.012;40.984;2024-03-06T08:40:29;101293.22;;;-3.48;48.62
59391;BME280;53405;57.012;40.984;2024-03-06T08:42:57;101297.28;;;-3.42;49.50
59391;BME280;53405;57.012;40.984;2024-03-06T08:45:25;101275.09;;;-3.45;50.72
59391;BME280;53405;57.012;40.984;2024-03-06T08:47:53;101274.00;;;-3.39;47.69
59391;BME280;53405;57.012;40.984;2024-03-06T08:50:22;101281.22;;;-3.25;48.25
59391;BME280;53405;57.012;40.984;2024-03-06T08:52:50;101270.97;;;-3.27;49.57
59391;BME280;53405;57.012;40.984;2024-03-06T08:55:19;101289.22;;;-3.10;49.82
59391;BME280;53405;57.012;40.984;2024-03-06T08:57:46;101291.63;;;-3.05;48.17
59391;BME280;53405;57.012;40.984;2024-03-06T09:00:14;101278.06;;;-3.10;49.61
59391;BME280;53405;57.012;40.984;2024-03-06T09:02:44;101272.81;;;-2.85;46.41
59391;BME280;53405;57.012;40.984;2024-03-06T09:05:11;101272.63;;;-2.58;47.03
59391;BME280;53405;57.012;40.984;2024-03-06T09:07:41;101267.53;;;-2.39;45.82
59391;BME280;53405;57.012;40.984;2024-03-06T09:10:10;101242.59;;;-2.61;45.53
59391;BME280;53405;57.012;40.984;2024-03-06T09:12:38;101236.13;;;-2.49;45.02
59391;BME280;53405;57.012;40.984;2024-03-06T09:15:06;101264.94;;;-2.60;48.04
59391;BME280;53405;57.012;40.984;2024-03-06T09:20:25;101264.81;;;-2.57;47.44
59391;BME280;53405;57.012;40.984;2024-03-06T09:22:53;101261.75;;;-2.24;46.31
59391;BME280;53405;57.012;40.984;2024-03-06T09:25:24;101255.84;;;-2.07;45.91
59391;BME280;53405;57.012;40.984;2024-03-06T09:27:56;101231.53;;;-2.22;45.46
59391;BME280;53405;57.012;40.984;2024-03-06T09:30:24;101258.97;;;-2.19;46.05
59391;BME280;53405;57.012;40.984;2024-03-06T09:32:52;101249.56;;;-1.80;44.09
59391;BME280;53405;57.012;40.984;2024-03-06T09:35:20;101243.22;;;-1.92;42.86
59391;BME280;53405;57.012;40.984;2024-03-06T09:37:48;101249.59;;;-1.61;44.71
59391;BME280;53405;57.012;40.984;2024-03-06T09:40:23;101234.69;;;-1.37;44.96
59391;BME280;53405;57.012;40.984;2024-03-06T09:42:51;101217.47;;;-1.56;42.38
59391;BME280;53405;57.012;40.984;2024-03-06T09:45:20;101249.50;;;-1.60;44.76
59391;BME280;53405;57.012;40.984;2024-03-06T09:47:49;101224.22;;;-1.53;42.75
59391;BME280;53405;57.012;40.984;2024-03-06T09:50:24;101238.00;;;-1.34;44.25
59391;BME280;53405;57.012;40.984;2024-03-06T09:52:55;101195.03;;;-1.36;43.62
59391;BME280;53405;57.012;40.984;2024-03-06T09:55:24;101233.16;;;-1.22;43.20
59391;BME280;53405;57.012;40.984;2024-03-06T09:57:53;101229.03;;;-1.27;43.67
59391;BME280;53405;57.012;40.984;2024-03-06T10:00:20;101230.94;;;-1.30;42.18
59391;BME280;53405;57.012;40.984;2024-03-06T10:02:58;101233.19;;;-1.41;48.04
59391;BME280;53405;57.012;40.984;2024-03-06T10:05:29;101222.78;;;-1.59;44.99
59391;BME280;53405;57.012;40.984;2024-03-06T10:07:58;101227.03;;;-1.20;43.89
59391;BME280;53405;57.012;40.984;2024-03-06T10:10:27;101182.13;;;-1.36;40.15
59391;BME280;53405;57.012;40.984;2024-03-06T10:12:55;101219.34;;;-1.21;42.14
59391;BME280;53405;57.012;40.984;2024-03-06T10:15:24;101217.28;;;-0.96;41.48
59391;BME280;53405;57.012;40.984;2024-03-06T10:18:16;101221.69;;;-1.17;44.15
59391;BME280;53405;57.012;40.984;2024-03-06T10:20:46;101218.75;;;-1.09;45.51
59391;BME280;53405;57.012;40.984;2024-03-06T10:23:14;101194.22;;;-1.00;40.02
59391;BME280;53405;57.012;40.984;2024-03-06T10:25:49;101215.91;;;-0.85;40.37
59391;BME280;53405;57.012;40.984;2024-03-06T10:28:21;101207.84;;;-0.79;38.29
59391;BME280;53405;57.012;40.984;2024-03-06T10:30:51;101162.13;;;-0.96;39.32
59391;BME280;53405;57.012;40.984;2024-03-06T10:33:20;101217.66;;;-0.51;41.51
59391;BME280;53405;57.012;40.984;2024-03-06T10:35:48;101206.78;;;-0.58;41.75
59391;BME280;53405;57.012;40.984;2024-03-06T10:38:16;101214.31;;;-0.35;41.40
59391;BME280;53405;57.012;40.984;2024-03-06T10:40:49;101207.22;;;-0.32;39.60
59391;BME280;53405;57.012;40.984;2024-03-06T10:43:20;101208.56;;;-0.58;41.97
59391;BME280;53405;57.012;40.984;2024-03-06T10:46:01;101202.59;;;-0.78;43.35
59391;BME280;53405;57.012;40.984;2024-03-06T10:48:34;101158.63;;;-0.95;39.60
59391;BME280;53405;57.012;40.984;2024-03-06T10:51:04;101213.72;;;-0.76;42.57
59391;BME280;53405;57.012;40.984;2024-03-06T10:53:34;101157.56;;;-0.91;43.13
59391;BME280;53405;57.012;40.984;2024-03-06T10:56:02;101198.13;;;-0.74;41.78
59391;BME280;53405;57.012;40.984;2024-03-06T10:58:31;101190.03;;;-0.68;42.43
59391;BME280;53405;57.012;40.984;2024-03-06T11:01:01;101194.31;;;-0.67;41.08
59391;BME280;53405;57.012;40.984;2024-03-06T11:03:31;101148.34;;;-0.79;41.04
59391;BME280;53405;57.012;40.984;2024-03-06T11:05:58;101179.13;;;-0.40;38.39
59391;BME280;53405;57.012;40.984;2024-03-06T11:08:31;101190.66;;;-0.63;41.04
59391;BME280;53405;57.012;40.984;2024-03-06T11:11:20;101178.22;;;-0.39;42.81
59391;BME280;53405;57.012;40.984;2024-03-06T11:13:54;101165.84;;;0.17;42.41
59391;BME280;53405;57.012;40.984;2024-03-06T11:16:31;101133.16;;;0.31;40.34
59391;BME280;53405;57.012;40.984;2024-03-06T11:19:07;101168.91;;;-0.08;40.67
59391;BME280;53405;57.012;40.984;2024-03-06T11:21:45;101174.28;;;0.69;40.88
59391;BME280;53405;57.012;40.984;2024-03-06T11:26:52;101169.94;;;2.18;39.15
59391;BME280;53405;57.012;40.984;2024-03-06T11:29:27;101155.34;;;1.43;39.53
59391;BME280;53405;57.012;40.984;2024-03-06T11:32:00;101150.91;;;0.85;42.08
59391;BME280;53405;57.012;40.984;2024-03-06T11:34:29;101155.28;;;1.15;42.12
59391;BME280;53405;57.012;40.984;2024-03-06T11:36:58;101155.94;;;1.77;39.03
59391;BME280;53405;57.012;40.984;2024-03-06T11:39:29;101163.16;;;1.43;40.17
59391;BME280;53405;57.012;40.984;2024-03-06T11:42:01;101154.19;;;0.72;41.78
59391;BME280;53405;57.012;40.984;2024-03-06T11:44:31;101164.81;;;1.14;40.40
59391;BME280;53405;57.012;40.984;2024-03-06T11:47:02;101156.50;;;1.23;41.02
59391;BME280;53405;57.012;40.984;2024-03-06T11:49:32;101145.59;;;2.19;37.01
59391;BME280;53405;57.012;40.984;2024-03-06T11:52:03;101153.00;;;2.94;35.97
59391;BME280;53405;57.012;40.984;2024-03-06T11:54:32;101162.56;;;3.72;33.98
59391;BME280;53405;57.012;40.984;2024-03-06T11:57:02;101135.94;;;4.06;32.28
59391;BME280;53405;57.012;40.984;2024-03-06T11:59:32;101142.03;;;4.30;32.90
59391;BME280;53405;57.012;40.984;2024-03-06T12:02:01;101143.50;;;4.22;31.28
59391;BME280;53405;57.012;40.984;2024-03-06T12:04:30;101143.00;;;4.16;31.92
59391;BME280;53405;57.012;40.984;2024-03-06T12:06:59;101142.81;;;4.20;34.26
59391;BME280;53405;57.012;40.984;2024-03-06T12:09:27;101131.03;;;4.38;34.16
59391;BME280;53405;57.012;40.984;2024-03-06T12:11:56;101133.59;;;3.77;36.15
59391;BME280;53405;57.012;40.984;2024-03-06T12:14:27;101129.69;;;2.65;36.58
59391;BME280;53405;57.012;40.984;2024-03-06T12:16:56;101115.78;;;3.32;34.71
59391;BME280;53405;57.012;40.984;2024-03-06T12:19:27;101132.22;;;3.84;33.36
59391;BME280;53405;57.012;40.984;2024-03-06T12:21:59;101120.44;;;4.28;31.91
59391;BME280;53405;57.012;40.984;2024-03-06T12:24:31;101119.75;;;3.25;33.69
59391;BME280;53405;57.012;40.984;2024-03-06T12:27:01;101064.44;;;2.56;36.63
59391;BME280;53405;57.012;40.984;2024-03-06T12:29:31;101119.09;;;2.68;38.83
59391;BME280;53405;57.012;40.984;2024-03-06T12:32:01;101100.69;;;2.71;35.50
59391;BME280;53405;57.012;40.984;2024-03-06T12:34:38;101117.88;;;2.47;36.49
59391;BME280;53405;57.012;40.984;2024-03-06T12:37:09;101074.63;;;2.31;36.45
59391;BME280;53405;57.012;40.984;2024-03-06T12:39:38;101105.84;;;2.31;38.02
59391;BME280;53405;57.012;40.984;2024-03-06T12:42:10;101110.31;;;1.88;35.79
59391;BME280;53405;57.012;40.984;2024-03-06T12:44:39;101106.78;;;1.60;38.92
59391;BME280;53405;57.012;40.984;2024-03-06T12:47:08;101105.19;;;1.72;39.02
59391;BME280;53405;57.012;40.984;2024-03-06T12:49:36;101097.31;;;1.88;38.25
59391;BME280;53405;57.012;40.984;2024-03-06T12:52:04;101082.31;;;2.06;38.93
59391;BME280;53405;57.012;40.984;2024-03-06T12:54:32;101083.69;;;2.26;35.27
59391;BME280;53405;57.012;40.984;2024-03-06T12:57:00;101091.13;;;2.45;35.75
59391;BME280;53405;57.012;40.984;2024-03-06T12:59:28;101090.25;;;2.59;33.89
59391;BME280;53405;57.012;40.984;2024-03-06T13:01:55;101099.44;;;2.77;32.84
59391;BME280;53405;57.012;40.984;2024-03-06T13:04:24;101101.56;;;2.98;36.16